Time;durP1;ratioP1;P1;durP2;ratioP2;P2;SDS_P1;SDS_P2;PMS_P1;PMS_P2;Temp;Humidity;BMP_temperature;BMP_pressure;BME280_temperature;BME280_humidity;BME280_pressure;Samples;Min_cycle;Max_cycle;Signal;HPM_P1;HPM_P2
2022/11/01 00:01:29;;;;;;;33.85;19.90;;;7.00;99.90;;;;;;5093621;28;20026;-79
2022/11/01 00:03:55;;;;;;;46.15;24.75;;;7.00;99.90;;;;;;5091976;28;20114;-83
2022/11/01 00:06:21;;;;;;;47.28;26.98;;;7.00;99.90;;;;;;5093429;28;20077;-83
2022/11/01 00:08:46;;;;;;;52.55;29.15;;;7.10;99.90;;;;;;5091926;28;20028;-78
2022/11/01 00:11:15;;;;;;;45.38;27.15;;;7.10;99.90;;;;;;5093455;28;20397;-78
2022/11/01 00:13:40;;;;;;;52.03;31.08;;;7.20;99.90;;;;;;5098988;28;20031;-83
2022/11/01 00:16:06;;;;;;;56.95;31.25;;;7.20;99.90;;;;;;5113573;28;20389;-78
2022/11/01 00:18:32;;;;;;;56.00;32.65;;;7.30;99.90;;;;;;5113491;28;20031;-83
2022/11/01 00:20:58;;;;;;;65.10;35.92;;;7.30;99.90;;;;;;5117863;28;20027;-77
2022/11/01 00:23:23;;;;;;;43.10;26.23;;;7.30;99.90;;;;;;5116558;28;20028;-77
2022/11/01 00:25:49;;;;;;;37.00;22.33;;;7.20;99.90;;;;;;5117750;28;20019;-83
2022/11/01 00:28:14;;;;;;;28.67;19.95;;;7.20;99.90;;;;;;5117654;28;20138;-78
2022/11/01 00:30:40;;;;;;;34.88;19.63;;;7.10;99.90;;;;;;5097320;28;20028;-83
2022/11/01 00:33:06;;;;;;;34.33;20.02;;;7.00;99.90;;;;;;5097392;28;20016;-83
2022/11/01 00:35:32;;;;;;;34.80;18.88;;;7.00;99.90;;;;;;5101938;28;20473;-81
2022/11/01 00:37:58;;;;;;;32.20;20.13;;;7.00;99.90;;;;;;5097097;28;20058;-83
2022/11/01 00:40:25;;;;;;;36.83;22.65;;;6.90;99.90;;;;;;5096966;28;20056;-83
2022/11/01 00:42:51;;;;;;;39.35;24.30;;;7.00;99.90;;;;;;5097027;28;20466;-78
2022/11/01 00:45:17;;;;;;;39.05;22.83;;;7.00;99.90;;;;;;5095626;28;20027;-83
2022/11/01 00:47:44;;;;;;;39.17;24.73;;;7.00;99.90;;;;;;5110943;28;20047;-82
2022/11/01 00:50:10;;;;;;;48.42;27.63;;;7.00;99.90;;;;;;5096935;28;20028;-78
2022/11/01 00:52:36;;;;;;;39.65;23.08;;;7.00;99.90;;;;;;5095582;28;20065;-78
2022/11/01 00:55:01;;;;;;;29.67;21.88;;;7.00;99.90;;;;;;5095517;28;20409;-82
2022/11/01 00:57:27;;;;;;;38.30;21.17;;;7.00;99.90;;;;;;5095588;28;20016;-82
2022/11/01 00:59:52;;;;;;;32.65;19.52;;;6.90;99.90;;;;;;5096727;28;20020;-77
2022/11/01 01:02:18;;;;;;;34.72;21.63;;;6.90;99.90;;;;;;5096778;28;20022;-83
2022/11/01 01:04:43;;;;;;;36.67;22.38;;;6.90;99.90;;;;;;5096681;28;20481;-84
2022/11/01 01:07:09;;;;;;;47.83;28.88;;;6.90;99.90;;;;;;5095261;28;20115;-78
2022/11/01 01:09:35;;;;;;;34.13;23.50;;;6.90;99.90;;;;;;5095351;28;20035;-78
2022/11/01 01:12:01;;;;;;;36.00;20.45;;;6.90;99.90;;;;;;5096695;28;20444;-79
2022/11/01 01:14:28;;;;;;;29.27;19.02;;;6.80;99.90;;;;;;5096354;28;20362;-83
2022/11/01 01:16:53;;;;;;;34.22;21.27;;;6.70;99.90;;;;;;5095205;28;20028;-82
2022/11/01 01:19:19;;;;;;;34.30;21.25;;;6.70;99.90;;;;;;5095109;28;20028;-77
2022/11/01 01:21:45;;;;;;;41.63;22.90;;;6.70;99.90;;;;;;5096301;28;20444;-78
2022/11/01 01:24:10;;;;;;;48.97;27.10;;;6.70;99.90;;;;;;5096436;28;20027;-77
2022/11/01 01:26:36;;;;;;;38.88;23.40;;;6.70;99.90;;;;;;5094976;28;20013;-77
2022/11/01 01:29:02;;;;;;;45.60;24.30;;;6.70;99.90;;;;;;5101609;28;20052;-77
2022/11/01 01:31:28;;;;;;;45.35;24.27;;;6.70;99.90;;;;;;5116168;28;20469;-78
2022/11/01 01:33:53;;;;;;;39.42;23.65;;;6.70;99.90;;;;;;5115284;28;20439;-77
2022/11/01 01:36:19;;;;;;;43.40;24.65;;;6.70;99.90;;;;;;5099848;28;20021;-81
2022/11/01 01:38:44;;;;;;;40.60;23.63;;;6.70;99.90;;;;;;5096157;28;20413;-83
2022/11/01 01:43:54;;;;;;;44.97;26.05;;;6.80;99.90;;;;;;5096262;28;20141;-77
2022/11/01 01:46:20;;;;;;;40.03;21.25;;;6.80;99.90;;;;;;5094553;28;20070;-78
2022/11/01 01:48:52;;;;;;;38.80;22.83;;;6.90;99.90;;;;;;5094594;28;20059;-82
2022/11/01 01:51:23;;;;;;;36.28;23.20;;;6.80;99.90;;;;;;5095777;28;20031;-78
2022/11/01 01:53:52;;;;;;;39.72;21.23;;;6.70;99.90;;;;;;5094474;28;20093;-77
2022/11/01 01:56:25;;;;;;;38.95;22.35;;;6.50;99.90;;;;;;5095688;28;20024;-83
2022/11/01 01:59:04;;;;;;;29.80;18.65;;;6.40;99.90;;;;;;5094390;28;20028;-83
2022/11/01 02:01:31;;;;;;;30.08;18.75;;;6.30;99.90;;;;;;5095823;28;20024;-77
2022/11/01 02:03:57;;;;;;;36.35;18.83;;;6.30;99.90;;;;;;5094574;28;20130;-77
2022/11/01 02:06:24;;;;;;;39.58;24.00;;;6.20;99.90;;;;;;5095523;28;20473;-82
2022/11/01 02:08:55;;;;;;;37.58;23.88;;;6.20;99.90;;;;;;5095403;28;20068;-83
2022/11/01 02:11:22;;;;;;;50.72;26.83;;;6.30;99.90;;;;;;5095446;28;20050;-78
2022/11/01 02:13:48;;;;;;;52.22;30.30;;;6.30;99.90;;;;;;5094178;28;20093;-78
2022/11/01 02:16:42;;;;;;;41.92;26.50;;;6.40;99.90;;;;;;5094004;28;20030;-83
2022/11/01 02:19:20;;;;;;;39.63;25.83;;;6.40;99.90;;;;;;5095130;28;20047;-78
2022/11/01 02:22:08;;;;;;;37.10;22.27;;;6.50;99.90;;;;;;5095180;28;20026;-83
2022/11/01 02:24:48;;;;;;;34.05;19.38;;;6.40;99.90;;;;;;5095320;28;20086;-78
2022/11/01 02:27:58;;;;;;;33.35;18.33;;;6.30;99.90;;;;;;5093685;28;20500;-83
2022/11/01 02:30:28;;;;;;;33.30;20.15;;;6.20;99.90;;;;;;5096686;28;20068;-83
2022/11/01 02:33:12;;;;;;;35.05;18.63;;;6.20;99.90;;;;;;5131315;27;20642;-78
2022/11/01 02:36:13;;;;;;;40.28;20.00;;;6.00;99.90;;;;;;5102769;28;20027;-83
2022/11/01 02:38:49;;;;;;;38.35;20.33;;;6.00;99.90;;;;;;5094841;28;20031;-78
2022/11/01 02:41:30;;;;;;;42.97;22.33;;;6.00;99.90;;;;;;5093039;28;20139;-78
2022/11/01 02:44:01;;;;;;;38.70;22.23;;;5.90;99.90;;;;;;5093385;28;20082;-83
2022/11/01 02:49:18;;;;;;;59.00;29.10;;;5.90;99.90;;;;;;5094648;28;20073;-77
2022/11/01 02:51:45;;;;;;;46.17;26.35;;;5.90;99.90;;;;;;5093238;28;20036;-78
2022/11/01 02:54:22;;;;;;;48.90;26.65;;;5.90;99.90;;;;;;5094469;28;20458;-77
2022/11/01 02:56:49;;;;;;;49.85;27.25;;;6.00;99.90;;;;;;5094550;28;20024;-84
2022/11/01 02:59:23;;;;;;;44.08;26.55;;;6.00;99.90;;;;;;5094403;28;20090;-77
2022/11/01 03:02:38;;;;;;;49.25;24.58;;;6.00;99.90;;;;;;5094398;28;20044;-84
2022/11/01 03:05:20;;;;;;;46.70;23.60;;;6.00;99.90;;;;;;5094587;28;20023;-78
2022/11/01 03:07:50;;;;;;;50.65;25.20;;;5.80;99.90;;;;;;5092823;28;20164;-84
2022/11/01 03:10:17;;;;;;;48.17;26.33;;;5.80;99.90;;;;;;5093019;28;20020;-78
2022/11/01 03:13:02;;;;;;;56.60;27.27;;;5.80;99.90;;;;;;5092888;28;20017;-84
2022/11/01 03:15:38;;;;;;;50.65;28.50;;;5.80;99.90;;;;;;5094139;28;20103;-83
2022/11/01 03:18:10;;;;;;;54.00;29.10;;;5.80;99.90;;;;;;5093144;28;20066;-83
2022/11/01 03:20:46;;;;;;;44.53;26.25;;;5.80;99.90;;;;;;5093038;28;20020;-84
2022/11/01 03:23:22;;;;;;;43.55;24.77;;;5.80;99.90;;;;;;5092737;28;20016;-84
2022/11/01 03:25:54;;;;;;;59.22;27.55;;;5.80;99.90;;;;;;5093979;28;20016;-83
2022/11/01 03:28:30;;;;;;;55.08;26.23;;;5.80;99.90;;;;;;5094032;28;20408;-83
2022/11/01 03:31:07;;;;;;;42.15;21.48;;;5.80;99.90;;;;;;5112970;28;20035;-77
2022/11/01 03:33:36;;;;;;;48.08;23.50;;;5.70;99.90;;;;;;5114235;28;20181;-83
2022/11/01 03:36:06;;;;;;;51.60;24.23;;;5.70;99.90;;;;;;5099439;27;20012;-77
2022/11/01 03:38:35;;;;;;;46.22;22.40;;;5.60;99.90;;;;;;5093909;28;20458;-83
2022/11/01 03:41:05;;;;;;;55.40;25.65;;;5.60;99.90;;;;;;5093855;28;20071;-77
2022/11/01 03:43:34;;;;;;;121.20;29.83;;;5.60;99.90;;;;;;5092389;28;20103;-83
2022/11/01 03:45:59;;;;;;;65.35;25.35;;;5.70;99.90;;;;;;5093871;28;20031;-83
2022/11/01 03:48:25;;;;;;;114.95;33.30;;;5.70;99.90;;;;;;5092163;28;20027;-81
2022/11/01 03:50:52;;;;;;;114.88;34.03;;;5.70;99.90;;;;;;5093726;28;20462;-82
2022/11/01 03:53:18;;;;;;;81.05;30.85;;;5.70;99.90;;;;;;5093436;28;20024;-78
2022/11/01 03:55:44;;;;;;;65.18;27.15;;;5.70;99.90;;;;;;5092180;28;20028;-77
2022/11/01 03:58:10;;;;;;;186.73;42.10;;;5.80;99.90;;;;;;5093417;28;20077;-82
2022/11/01 04:00:45;;;;;;;58.10;26.98;;;5.80;99.90;;;;;;5093557;28;20031;-78
2022/11/01 04:03:12;;;;;;;97.43;31.02;;;5.80;99.90;;;;;;5092166;28;20114;-82
2022/11/01 04:05:40;;;;;;;60.70;25.77;;;5.80;99.90;;;;;;5092324;28;20016;-82
2022/11/01 04:08:06;;;;;;;112.65;32.03;;;5.90;99.90;;;;;;5092034;28;20115;-82
2022/11/01 04:10:32;;;;;;;98.55;31.55;;;5.90;99.90;;;;;;5093430;28;20438;-78
2022/11/01 04:12:59;;;;;;;52.80;25.83;;;5.90;99.90;;;;;;5093278;28;20059;-83
2022/11/01 04:21:15;;;;;;;119.40;33.13;;;6.00;99.90;;;;;;5093385;28;20101;-77
2022/11/01 04:23:43;;;;;;;61.15;29.13;;;6.10;99.90;;;;;;5093209;28;20027;-77
2022/11/01 04:26:13;;;;;;;110.43;33.90;;;6.10;99.90;;;;;;5093146;28;20149;-77
2022/11/01 04:28:39;;;;;;;164.80;44.78;;;6.20;99.90;;;;;;5096325;28;20030;-78
2022/11/01 04:31:05;;;;;;;179.25;45.65;;;6.20;99.90;;;;;;5112332;28;20024;-78
2022/11/01 04:33:31;;;;;;;117.20;38.47;;;6.30;99.90;;;;;;5112134;28;20106;-83
2022/11/01 04:35:57;;;;;;;136.85;42.70;;;6.30;99.90;;;;;;5097762;28;20434;-83
2022/11/01 04:38:23;;;;;;;242.70;55.92;;;6.30;99.90;;;;;;5091718;28;20443;-81
2022/11/01 04:40:48;;;;;;;92.65;34.55;;;6.30;99.90;;;;;;5091881;28;20490;-84
2022/11/01 04:43:14;;;;;;;179.43;44.10;;;6.30;99.90;;;;;;5093014;28;20054;-83
2022/11/01 04:45:40;;;;;;;81.07;34.75;;;6.30;99.90;;;;;;5093007;28;20537;-77
2022/11/01 04:48:11;;;;;;;159.50;42.97;;;6.30;99.90;;;;;;5091706;28;20115;-84
2022/11/01 04:50:37;;;;;;;115.63;40.13;;;6.30;99.90;;;;;;5093191;28;20408;-78
2022/11/01 04:53:02;;;;;;;144.45;40.60;;;6.30;99.90;;;;;;5109267;28;20016;-83
2022/11/01 04:55:28;;;;;;;175.85;44.38;;;6.20;99.90;;;;;;5129137;28;20020;-78
2022/11/01 04:57:55;;;;;;;187.52;44.30;;;6.20;99.90;;;;;;5111941;28;20055;-83
2022/11/01 05:00:21;;;;;;;165.70;43.53;;;6.20;99.90;;;;;;5111961;28;20465;-77
2022/11/01 05:02:48;;;;;;;155.55;43.08;;;6.20;99.90;;;;;;5111907;28;20066;-77
2022/11/01 05:05:14;;;;;;;186.65;46.13;;;6.10;99.90;;;;;;5113043;28;20027;-83
2022/11/01 05:07:40;;;;;;;250.70;53.85;;;6.10;99.90;;;;;;5116960;28;20050;-83
2022/11/01 05:10:07;;;;;;;115.20;35.92;;;6.00;99.90;;;;;;5116992;28;20019;-83
2022/11/01 05:12:32;;;;;;;163.00;42.35;;;6.10;99.90;;;;;;5115516;28;20016;-82
2022/11/01 05:14:58;;;;;;;170.60;44.72;;;6.10;99.90;;;;;;5115553;28;20023;-83
2022/11/01 05:17:24;;;;;;;160.05;46.83;;;6.10;99.90;;;;;;5132605;27;20114;-77
2022/11/01 05:19:49;;;;;;;185.68;49.95;;;6.00;99.90;;;;;;5115313;28;20072;-83
2022/11/01 05:22:16;;;;;;;128.82;46.42;;;6.00;99.90;;;;;;5116655;28;20023;-83
2022/11/01 05:24:42;;;;;;;246.93;56.63;;;6.00;99.90;;;;;;5115353;28;20051;-78
2022/11/01 05:27:08;;;;;;;221.80;53.83;;;6.00;99.90;;;;;;5115466;28;20012;-83
2022/11/01 05:29:33;;;;;;;336.52;73.05;;;6.00;99.90;;;;;;5098553;28;20063;-78
2022/11/01 05:31:59;;;;;;;217.50;51.28;;;6.00;99.90;;;;;;5094996;28;20027;-82
2022/11/01 05:34:25;;;;;;;126.72;45.58;;;6.00;99.90;;;;;;5096121;28;20024;-82
2022/11/01 05:36:50;;;;;;;185.13;51.10;;;6.00;99.90;;;;;;5096112;28;20043;-84
2022/11/01 05:39:16;;;;;;;235.52;53.75;;;5.90;99.90;;;;;;5094492;28;20056;-83
2022/11/01 05:41:41;;;;;;;159.70;48.70;;;5.90;99.90;;;;;;5094700;28;20381;-83
2022/11/01 05:44:07;;;;;;;105.93;41.50;;;5.90;99.90;;;;;;5111685;28;20020;-77
2022/11/01 05:46:33;;;;;;;277.33;59.13;;;6.00;99.90;;;;;;5094585;28;20220;-83
2022/11/01 05:48:59;;;;;;;155.25;48.28;;;5.90;99.90;;;;;;5095589;28;20542;-82
2022/11/01 05:51:24;;;;;;;149.55;48.78;;;6.00;99.90;;;;;;5094555;28;20118;-77
2022/11/01 05:53:50;;;;;;;183.13;54.75;;;6.00;99.90;;;;;;5095766;28;20039;-77
2022/11/01 05:56:16;;;;;;;211.75;56.38;;;6.00;99.90;;;;;;5094379;28;20020;-82
2022/11/01 05:58:42;;;;;;;205.95;53.83;;;6.00;99.90;;;;;;5095528;28;20020;-81
2022/11/01 06:01:08;;;;;;;114.32;48.72;;;6.00;99.90;;;;;;5095412;28;20031;-79
2022/11/01 06:03:35;;;;;;;132.55;56.38;;;6.00;99.90;;;;;;5094274;28;20024;-78
2022/11/01 06:06:01;;;;;;;280.33;68.90;;;6.00;99.90;;;;;;5111349;28;20090;-82
2022/11/01 06:08:27;;;;;;;335.67;76.32;;;6.00;99.90;;;;;;5095516;28;20036;-80
2022/11/01 06:10:59;;;;;;;175.75;54.50;;;6.00;99.90;;;;;;5095005;28;20026;-78
2022/11/01 06:13:24;;;;;;;169.40;54.10;;;6.10;99.90;;;;;;5093841;28;20031;-78
2022/11/01 06:16:00;;;;;;;159.00;54.25;;;6.10;99.90;;;;;;5095227;28;20119;-83
2022/11/01 06:18:26;;;;;;;207.43;57.28;;;6.10;99.90;;;;;;5094380;28;20028;-83
2022/11/01 06:20:51;;;;;;;187.43;56.85;;;6.10;99.90;;;;;;5094019;28;20016;-78
2022/11/01 06:23:17;;;;;;;160.15;54.47;;;6.20;99.90;;;;;;5093870;28;20482;-79
2022/11/01 06:25:43;;;;;;;224.88;62.28;;;6.20;99.90;;;;;;5095089;28;20434;-83
2022/11/01 06:28:09;;;;;;;187.32;56.80;;;6.20;99.90;;;;;;5096223;28;20085;-77
2022/11/01 06:30:37;;;;;;;230.27;60.40;;;6.20;99.90;;;;;;5114026;28;20385;-78
2022/11/01 06:33:03;;;;;;;160.55;55.05;;;6.20;99.90;;;;;;5110577;28;20051;-84
2022/11/01 06:35:29;;;;;;;198.77;56.55;;;6.20;99.90;;;;;;5093201;28;20055;-78
2022/11/01 06:38:00;;;;;;;132.77;51.78;;;6.20;99.90;;;;;;5094971;28;20039;-78
2022/11/01 06:40:25;;;;;;;143.95;47.97;;;6.20;99.90;;;;;;5094711;28;20104;-83
2022/11/01 06:42:51;;;;;;;130.18;51.22;;;6.30;99.90;;;;;;5093552;28;20111;-83
2022/11/01 06:45:16;;;;;;;206.85;58.13;;;6.40;99.90;;;;;;5094686;28;20028;-78
2022/11/01 06:47:46;;;;;;;142.82;52.22;;;6.40;99.90;;;;;;5092736;28;20024;-83
2022/11/01 06:50:12;;;;;;;206.57;60.78;;;6.50;99.90;;;;;;5094234;28;20097;-83
2022/11/01 06:52:37;;;;;;;111.25;47.25;;;6.60;99.90;;;;;;5094318;28;20024;-83
2022/11/01 06:55:04;;;;;;;129.77;52.08;;;6.70;99.90;;;;;;5093484;28;20430;-83
2022/11/01 06:57:30;;;;;;;133.80;52.35;;;6.80;99.90;;;;;;5094235;28;20019;-82
2022/11/01 06:59:57;;;;;;;133.13;46.85;;;6.90;99.90;;;;;;5092549;28;20392;-82
2022/11/01 07:02:24;;;;;;;181.50;50.30;;;6.90;99.90;;;;;;5094658;28;20016;-77
2022/11/01 07:04:50;;;;;;;196.07;52.25;;;7.00;99.90;;;;;;5094340;28;20020;-78
2022/11/01 07:07:16;;;;;;;313.45;57.80;;;7.00;99.90;;;;;;5092491;28;20069;-78
2022/11/01 07:09:41;;;;;;;85.65;35.10;;;7.10;99.90;;;;;;5092164;28;20060;-82
2022/11/01 07:12:07;;;;;;;132.82;37.20;;;7.10;99.90;;;;;;5089920;28;20123;-79
2022/11/01 07:14:32;;;;;;;115.68;36.20;;;7.20;99.90;;;;;;5092869;28;20024;-78
2022/11/01 07:16:58;;;;;;;161.82;39.30;;;7.20;99.90;;;;;;5093985;28;20028;-83
2022/11/01 07:19:24;;;;;;;226.13;45.35;;;7.20;99.90;;;;;;5094084;28;20032;-82
2022/11/01 07:21:49;;;;;;;79.75;29.10;;;7.20;99.90;;;;;;5094069;28;20508;-79
2022/11/01 07:24:15;;;;;;;138.85;39.88;;;7.20;99.90;;;;;;5093926;28;20035;-79
2022/11/01 07:26:40;;;;;;;90.43;32.45;;;7.30;99.90;;;;;;5093926;28;20020;-77
2022/11/01 07:29:06;;;;;;;190.00;41.60;;;7.30;99.90;;;;;;5103001;28;20058;-78
2022/11/01 07:31:32;;;;;;;112.90;35.80;;;7.40;99.90;;;;;;5114246;28;20091;-77
2022/11/01 07:33:58;;;;;;;120.28;35.15;;;7.50;99.90;;;;;;5093482;28;20032;-77
2022/11/01 07:36:24;;;;;;;123.05;35.05;;;7.50;99.90;;;;;;5105707;28;20031;-77
2022/11/01 07:38:49;;;;;;;83.18;31.98;;;7.60;99.90;;;;;;5112991;28;20040;-77
2022/11/01 07:41:15;;;;;;;131.82;35.40;;;7.70;99.90;;;;;;5104591;28;20067;-77
2022/11/01 07:43:41;;;;;;;107.35;33.40;;;7.70;99.90;;;;;;5111782;28;20030;-77
2022/11/01 07:46:06;;;;;;;122.28;35.83;;;7.80;99.90;;;;;;5111027;28;20132;-84
2022/11/01 07:48:35;;;;;;;181.55;41.00;;;7.90;99.90;;;;;;5112121;28;20097;-84
2022/11/01 07:51:02;;;;;;;97.28;32.35;;;7.90;99.90;;;;;;5107599;28;20133;-80
2022/11/01 07:53:27;;;;;;;87.00;32.45;;;8.00;99.90;;;;;;5111238;28;20032;-76
2022/11/01 07:55:53;;;;;;;96.32;32.67;;;8.10;99.90;;;;;;5111905;28;20106;-76
2022/11/01 07:58:19;;;;;;;71.90;30.48;;;8.10;99.90;;;;;;5105152;28;21511;-84
2022/11/01 08:00:45;;;;;;;90.80;30.33;;;8.20;99.90;;;;;;5110838;28;20408;-78
2022/11/01 08:03:12;;;;;;;60.47;28.55;;;8.20;99.90;;;;;;5111373;28;20023;-83
2022/11/01 08:05:39;;;;;;;67.35;28.83;;;8.20;99.90;;;;;;5112177;28;20027;-77
2022/11/01 08:08:05;;;;;;;71.95;27.55;;;8.30;99.90;;;;;;5102351;28;20035;-77
2022/11/01 08:10:32;;;;;;;72.97;31.50;;;8.40;99.90;;;;;;5105862;28;20263;-83
2022/11/01 08:13:07;;;;;;;63.53;27.40;;;8.50;99.90;;;;;;5103166;28;20370;-82
2022/11/01 08:15:33;;;;;;;56.78;27.38;;;8.60;99.90;;;;;;5106475;28;20500;-77
2022/11/01 08:17:59;;;;;;;65.35;28.40;;;8.70;99.90;;;;;;5111240;28;20038;-81
2022/11/01 08:20:26;;;;;;;57.13;25.52;;;8.70;99.90;;;;;;5110764;28;20035;-81
2022/11/01 08:22:52;;;;;;;59.33;27.55;;;8.70;99.90;;;;;;5111111;28;20016;-77
2022/11/01 08:25:18;;;;;;;59.72;29.23;;;8.80;99.90;;;;;;5108862;28;20046;-78
2022/11/01 08:27:44;;;;;;;60.65;29.50;;;8.90;99.90;;;;;;5092862;28;20432;-78
2022/11/01 08:30:10;;;;;;;54.97;26.90;;;8.90;99.90;;;;;;5108774;28;20070;-77
2022/11/01 08:32:36;;;;;;;50.58;25.27;;;9.00;99.90;;;;;;5109223;28;20426;-81
2022/11/01 08:35:02;;;;;;;56.75;28.05;;;9.10;99.90;;;;;;5092439;28;20060;-82
2022/11/01 08:37:27;;;;;;;55.67;27.60;;;9.10;99.90;;;;;;5111622;28;20053;-78
2022/11/01 08:39:53;;;;;;;55.05;27.55;;;9.20;99.90;;;;;;5110774;28;20225;-82
2022/11/01 08:42:19;;;;;;;45.60;25.58;;;9.30;99.90;;;;;;5116041;28;20016;-82
2022/11/01 08:44:45;;;;;;;55.72;27.17;;;9.30;99.90;;;;;;5111473;27;20043;-81
2022/11/01 08:47:11;;;;;;;52.08;27.08;;;9.40;99.90;;;;;;5114810;28;20102;-77
2022/11/01 08:49:36;;;;;;;47.20;23.95;;;9.50;99.90;;;;;;5116661;28;20439;-81
2022/11/01 08:52:02;;;;;;;50.80;24.92;;;9.50;99.90;;;;;;5116247;28;20034;-77
2022/11/01 08:54:29;;;;;;;51.47;26.02;;;9.50;99.90;;;;;;5114917;28;20373;-82
2022/11/01 08:56:55;;;;;;;42.15;24.60;;;9.60;99.90;;;;;;5112905;28;20012;-82
2022/11/01 08:59:21;;;;;;;45.25;25.08;;;9.70;99.90;;;;;;5106188;28;20020;-81
2022/11/01 09:01:46;;;;;;;45.95;24.13;;;9.80;99.90;;;;;;5113883;28;20040;-78
2022/11/01 09:04:12;;;;;;;48.08;24.88;;;9.80;99.90;;;;;;5116011;28;20114;-82
2022/11/01 09:06:38;;;;;;;45.05;23.63;;;9.80;99.90;;;;;;5114960;28;20108;-81
2022/11/01 09:09:04;;;;;;;50.70;25.13;;;10.00;99.90;;;;;;5107605;28;20491;-82
2022/11/01 09:11:30;;;;;;;47.35;25.17;;;10.10;99.90;;;;;;5131172;27;20039;-77
2022/11/01 09:13:56;;;;;;;45.03;25.45;;;10.10;99.90;;;;;;5098864;28;20055;-81
2022/11/01 09:16:22;;;;;;;44.70;24.33;;;10.20;99.90;;;;;;5095408;28;20492;-83
2022/11/01 09:18:48;;;;;;;44.33;26.17;;;10.30;99.90;;;;;;5095063;28;20028;-83
2022/11/01 09:21:15;;;;;;;45.40;27.65;;;10.30;99.90;;;;;;5095018;28;20471;-78
2022/11/01 09:23:41;;;;;;;46.17;26.50;;;10.30;99.90;;;;;;5112587;28;20023;-77
2022/11/01 09:26:09;;;;;;;74.32;41.90;;;10.30;99.90;;;;;;5131604;27;20022;-82
2022/11/01 09:28:35;;;;;;;47.85;27.30;;;10.40;99.90;;;;;;5111043;28;20040;-83
2022/11/01 09:31:06;;;;;;;70.97;38.08;;;10.40;99.90;;;;;;5095134;28;20016;-76
2022/11/01 09:33:32;;;;;;;39.30;23.67;;;10.50;99.90;;;;;;5096184;28;20484;-82
2022/11/01 09:35:58;;;;;;;37.42;24.98;;;10.50;99.90;;;;;;5096319;28;20123;-82
2022/11/01 09:38:24;;;;;;;57.50;31.65;;;10.60;99.90;;;;;;5096143;28;20028;-83
2022/11/01 09:41:12;;;;;;;42.45;25.10;;;10.60;99.90;;;;;;5092568;28;20040;-83
2022/11/01 09:43:42;;;;;;;45.42;25.58;;;10.70;99.90;;;;;;5092156;28;20017;-83
2022/11/01 09:46:13;;;;;;;52.58;32.28;;;10.80;99.90;;;;;;5091559;28;20084;-77
2022/11/01 09:48:40;;;;;;;89.78;47.58;;;10.90;99.90;;;;;;5093837;28;20036;-77
2022/11/01 09:51:13;;;;;;;52.90;28.73;;;11.00;99.90;;;;;;5109689;28;20533;-83
2022/11/01 09:53:39;;;;;;;;;;;11.10;99.90;;;;;;5094298;28;20024;-77
2022/11/01 09:56:13;;;;;;;113.10;55.95;;;11.20;99.90;;;;;;5094464;28;19946;-77
2022/11/01 09:59:07;;;;;;;83.43;42.30;;;11.30;99.90;;;;;;5095781;28;20024;-77
2022/11/01 10:01:56;;;;;;;121.13;59.45;;;11.30;99.90;;;;;;5094487;28;20026;-83
2022/11/01 10:04:49;;;;;;;45.15;22.73;;;11.40;99.90;;;;;;5095655;28;20032;-83
2022/11/01 10:07:38;;;;;;;36.15;21.05;;;11.40;99.90;;;;;;5095771;28;20020;-84
2022/11/01 10:10:28;;;;;;;38.05;21.02;;;11.50;99.90;;;;;;5095689;28;20111;-77
2022/11/01 10:13:25;;;;;;;39.15;21.70;;;11.60;99.90;;;;;;5094306;28;20589;-84
2022/11/01 10:16:09;;;;;;;34.45;21.80;;;11.70;99.90;;;;;;5094134;28;20401;-77
2022/11/01 10:19:22;;;;;;;66.20;36.92;;;11.80;99.90;;;;;;5095148;28;20063;-84
2022/11/01 10:21:55;;;;;;;40.30;23.17;;;12.00;99.90;;;;;;5094160;28;20388;-77
2022/11/01 10:24:30;;;;;;;45.40;23.60;;;12.20;99.90;;;;;;5095221;28;20016;-84
2022/11/01 10:27:08;;;;;;;38.78;17.85;;;12.40;99.90;;;;;;5093969;28;20038;-84
2022/11/01 10:29:44;;;;;;;24.88;14.65;;;12.50;99.90;;;;;;5109354;28;20443;-84
2022/11/01 10:32:31;;;;;;;24.05;13.32;;;12.70;99.90;;;;;;5115662;28;20016;-77
2022/11/01 10:35:03;;;;;;;24.77;11.38;;;12.90;99.90;;;;;;5100636;28;20377;-84
2022/11/01 10:37:51;;;;;;;17.48;10.07;;;13.00;99.90;;;;;;5095159;28;20070;-77
2022/11/01 10:40:29;;;;;;;19.42;11.80;;;13.10;99.90;;;;;;5093562;28;20052;-77
2022/11/01 10:42:54;;;;;;;26.42;15.27;;;13.10;99.90;;;;;;5093672;28;20477;-77
2022/11/01 10:45:22;;;;;;;24.25;15.00;;;13.20;99.90;;;;;;5109497;28;20024;-77
2022/11/01 10:47:55;;;;;;;26.65;13.77;;;13.40;99.90;;;;;;5106723;28;20039;-85
2022/11/01 10:50:23;;;;;;;25.48;12.07;;;13.50;99.90;;;;;;5114809;28;20392;-84
2022/11/01 10:52:55;;;;;;;19.20;9.77;;;13.60;99.90;;;;;;5114417;28;20449;-77
2022/11/01 10:55:46;;;;;;;15.80;8.85;;;13.60;99.90;;;;;;5090553;28;20031;-76
2022/11/01 10:58:22;;;;;;;16.13;8.07;;;13.70;99.90;;;;;;5094888;28;20032;-76
2022/11/01 11:00:49;;;;;;;17.40;9.38;;;13.80;99.90;;;;;;5093608;28;20059;-76
2022/11/01 11:03:22;;;;;;;15.90;9.05;;;13.90;99.90;;;;;;5093965;28;20020;-77
2022/11/01 11:05:51;;;;;;;18.67;7.82;;;13.90;99.90;;;;;;5092187;28;20021;-78
2022/11/01 11:08:19;;;;;;;12.30;8.35;;;13.90;99.90;;;;;;5095499;28;20477;-75
2022/11/01 11:10:45;;;;;;;13.25;7.95;;;14.00;99.90;;;;;;5092121;28;20115;-76
2022/11/01 11:13:14;;;;;;;12.18;7.85;;;14.10;99.90;;;;;;5094343;28;20436;-77
2022/11/01 11:15:44;;;;;;;12.07;7.55;;;14.20;99.90;;;;;;5093280;28;20021;-76
2022/11/01 11:18:24;;;;;;;12.85;7.30;;;14.20;99.90;;;;;;5092616;28;20028;-76
2022/11/01 11:21:11;;;;;;;11.82;7.18;;;14.30;99.90;;;;;;5093568;28;20024;-76
2022/11/01 11:23:43;;;;;;;9.05;6.53;;;14.40;99.90;;;;;;5093559;28;20066;-76
2022/11/01 11:26:12;;;;;;;12.27;7.95;;;14.50;99.90;;;;;;5094422;28;20059;-76
2022/11/01 11:28:44;;;;;;;16.98;9.48;;;14.50;99.90;;;;;;5096660;28;20473;-76
2022/11/01 11:31:21;;;;;;;;;;;14.50;99.90;;;;;;5092671;28;20127;-77
2022/11/01 11:34:17;;;;;;;32.80;21.90;;;14.40;99.90;;;;;;5092154;28;20380;-77
2022/11/01 11:36:46;;;;;;;15.68;12.23;;;14.40;99.90;;;;;;5086933;28;20376;-84
2022/11/01 11:39:30;;;;;;;11.68;7.55;;;14.40;99.90;;;;;;5107951;27;20055;-84
2022/11/01 11:42:10;;;;;;;11.35;7.47;;;14.50;99.90;;;;;;5100279;28;20040;-77
2022/11/01 11:44:40;;;;;;;14.73;9.25;;;14.50;99.90;;;;;;5109400;28;20069;-76
2022/11/01 11:47:23;;;;;;;10.80;7.50;;;14.60;99.90;;;;;;5106913;28;20054;-82
2022/11/01 11:49:52;;;;;;;8.45;6.53;;;14.60;99.90;;;;;;5101764;28;20111;-83
2022/11/01 11:52:21;;;;;;;14.27;8.07;;;14.70;99.90;;;;;;5102335;28;20517;-77
2022/11/01 11:54:47;;;;;;;14.05;7.82;;;14.60;99.90;;;;;;5109639;28;20027;-76
2022/11/01 11:57:20;;;;;;;11.73;7.38;;;14.70;99.90;;;;;;5110654;28;20054;-77
2022/11/01 11:59:53;;;;;;;12.13;6.53;;;14.70;99.90;;;;;;5085878;28;20035;-77
2022/11/01 12:02:34;;;;;;;11.43;7.00;;;14.80;99.90;;;;;;5105108;28;20475;-77
2022/11/01 12:05:03;;;;;;;13.05;7.50;;;14.80;99.90;;;;;;5111164;28;20419;-78
2022/11/01 12:07:33;;;;;;;10.43;7.80;;;14.70;99.90;;;;;;5110872;28;20020;-77
2022/11/01 12:10:01;;;;;;;9.68;7.80;;;14.70;99.90;;;;;;5112654;28;20058;-78
2022/11/01 12:12:33;;;;;;;12.05;8.30;;;14.70;99.90;;;;;;5104690;28;20059;-83
2022/11/01 12:15:00;;;;;;;12.45;7.72;;;14.70;99.90;;;;;;5090686;28;20100;-77
2022/11/01 12:17:43;;;;;;;11.23;7.32;;;14.70;99.90;;;;;;5091820;28;20080;-84
2022/11/01 12:20:18;;;;;;;12.20;8.20;;;14.70;99.90;;;;;;5091306;28;20024;-78
2022/11/01 12:23:09;;;;;;;18.20;8.50;;;14.60;99.90;;;;;;5092845;28;20161;-77
2022/11/01 12:25:36;;;;;;;12.85;7.53;;;14.50;99.90;;;;;;5093076;28;20405;-83
2022/11/01 12:28:18;;;;;;;14.57;8.25;;;14.40;99.90;;;;;;5093534;28;20401;-81
2022/11/01 12:30:44;;;;;;;17.13;7.55;;;14.30;99.90;;;;;;5113548;28;20389;-77
2022/11/01 12:33:38;;;;;;;16.10;8.65;;;14.30;99.90;;;;;;5090392;28;20066;-80
2022/11/01 12:36:06;;;;;;;14.82;9.15;;;14.40;99.90;;;;;;5087226;28;20036;-82
2022/11/01 12:39:13;;;;;;;12.57;8.00;;;14.50;99.90;;;;;;5093116;28;20111;-81
2022/11/01 12:41:43;;;;;;;13.05;7.53;;;14.60;99.90;;;;;;5058856;28;20059;-81
2022/11/01 12:44:39;;;;;;;16.27;9.30;;;14.70;99.90;;;;;;5091855;28;20390;-81
2022/11/01 12:47:22;;;;;;;11.30;7.90;;;14.60;99.90;;;;;;5089813;28;20123;-81
2022/11/01 12:50:08;;;;;;;15.10;8.40;;;14.60;99.90;;;;;;5091405;28;20058;-80
2022/11/01 12:52:57;;;;;;;13.73;7.40;;;14.50;99.90;;;;;;5093306;28;20026;-77
2022/11/01 12:55:29;;;;;;;16.10;8.50;;;14.50;99.90;;;;;;5109271;28;20016;-77
2022/11/01 12:57:55;;;;;;;14.18;8.77;;;14.50;99.90;;;;;;5109196;28;20028;-76
2022/11/01 13:00:22;;;;;;;17.30;9.48;;;14.50;99.90;;;;;;5109797;28;20012;-80